Time,TemperatureF,DewpointF,PressureIn,WindDirection,WindDirectionDegrees,WindSpeedMPH,WindSpeedGustMPH,Humidity,HourlyPrecipIn,Conditions,Clouds,dailyrainin,SoftwareType,DateUTC
2013-02-04 00:11:00,41.0,39.0,-100.00,SSE,167,0.0,0.0,93,0.00,,,0.00,,2013-02-04 06:11:00,
2013-02-04 00:21:00,41.0,39.0,-100.00,SSE,167,0.0,0.0,93,0.00,,,0.00,,2013-02-04 06:21:00,
2013-02-04 00:32:00,41.0,39.0,-100.00,SSE,167,0.0,0.0,93,0.00,,,0.00,,2013-02-04 06:32:00,
2013-02-04 00:42:00,41.0,39.0,-100.00,SSE,167,0.0,0.0,93,0.00,,,0.00,,2013-02-04 06:42:00,
2013-02-04 01:11:00,41.0,39.0,-100.00,East,90,1.0,2.0,94,0.00,,,0.00,,2013-02-04 07:11:00,
2013-02-04 01:21:00,41.0,39.0,-100.00,East,90,1.0,2.0,94,0.00,,,0.00,,2013-02-04 07:21:00,
2013-02-04 01:32:00,41.0,39.0,-100.00,East,90,1.0,2.0,94,0.00,,,0.00,,2013-02-04 07:32:00,
2013-02-04 01:42:00,41.0,39.0,-100.00,East,90,1.0,2.0,94,0.00,,,0.00,,2013-02-04 07:42:00,
2013-02-04 02:11:00,43.0,41.0,-100.00,SE,126,0.0,0.0,94,0.00,,,0.00,,2013-02-04 08:11:00,
2013-02-04 02:21:00,43.0,41.0,-100.00,SE,126,0.0,0.0,94,0.00,,,0.00,,2013-02-04 08:21:00,
2013-02-04 02:31:00,43.0,41.0,-100.00,SE,126,0.0,0.0,94,0.00,,,0.00,,2013-02-04 08:31:00,
2013-02-04 02:42:00,43.0,41.0,-100.00,SE,126,0.0,0.0,94,0.00,,,0.00,,2013-02-04 08:42:00,
2013-02-04 03:11:00,43.0,41.0,-100.00,East,91,0.0,0.0,91,0.00,,,0.00,,2013-02-04 09:11:00,
2013-02-04 03:21:00,43.0,41.0,-100.00,East,91,0.0,0.0,91,0.00,,,0.00,,2013-02-04 09:21:00,
2013-02-04 03:32:00,43.0,41.0,-100.00,East,91,0.0,0.0,91,0.00,,,0.00,,2013-02-04 09:32:00,
2013-02-04 03:41:00,43.0,41.0,-100.00,East,91,0.0,0.0,91,0.00,,,0.00,,2013-02-04 09:41:00,
2013-02-04 04:11:00,43.0,41.0,-100.00,South,170,0.0,0.0,92,0.00,,,0.00,,2013-02-04 10:11:00,
2013-02-04 04:21:00,43.0,41.0,-100.00,South,170,0.0,0.0,92,0.00,,,0.00,,2013-02-04 10:21:00,
2013-02-04 04:32:00,43.0,41.0,-100.00,South,170,0.0,0.0,92,0.00,,,0.00,,2013-02-04 10:32:00,
2013-02-04 04:41:00,43.0,41.0,-100.00,South,170,0.0,0.0,92,0.00,,,0.00,,2013-02-04 10:41:00,
2013-02-04 05:11:00,43.0,41.0,-100.00,SE,145,0.0,0.0,93,0.00,,,0.00,,2013-02-04 11:11:00,
2013-02-04 05:22:00,43.0,41.0,-100.00,SE,145,0.0,0.0,93,0.00,,,0.00,,2013-02-04 11:22:00,
2013-02-04 05:32:00,43.0,41.0,-100.00,SE,145,0.0,0.0,93,0.00,,,0.00,,2013-02-04 11:32:00,
2013-02-04 05:42:00,43.0,41.0,-100.00,SE,145,0.0,0.0,93,0.00,,,0.00,,2013-02-04 11:42:00,
2013-02-04 06:12:00,43.0,41.0,-100.00,NNW,330,0.0,0.0,93,0.00,,,0.00,,2013-02-04 12:12:00,
2013-02-04 06:22:00,43.0,41.0,-100.00,NNW,330,0.0,0.0,93,0.00,,,0.00,,2013-02-04 12:22:00,
2013-02-04 06:32:00,43.0,41.0,-100.00,NNW,330,0.0,0.0,93,0.00,,,0.00,,2013-02-04 12:32:00,
2013-02-04 06:42:00,43.0,41.0,-100.00,NNW,330,0.0,0.0,93,0.00,,,0.00,,2013-02-04 12:42:00,
2013-02-04 07:12:00,44.0,42.0,-100.00,East,85,0.0,0.0,93,0.00,,,0.00,,2013-02-04 13:12:00,
2013-02-04 07:21:00,44.0,42.0,-100.00,East,85,0.0,0.0,93,0.00,,,0.00,,2013-02-04 13:21:00,
2013-02-04 07:33:00,44.0,42.0,-100.00,East,85,0.0,0.0,93,0.00,,,0.00,,2013-02-04 13:33:00,
2013-02-04 07:42:00,44.0,42.0,-100.00,East,85,0.0,0.0,93,0.00,,,0.00,,2013-02-04 13:42:00,
2013-02-04 08:12:00,44.0,42.0,-100.00,ENE,73,0.0,0.0,92,0.00,,,0.00,,2013-02-04 14:12:00,
2013-02-04 08:22:00,44.0,42.0,-100.00,ENE,73,0.0,0.0,92,0.00,,,0.00,,2013-02-04 14:22:00,
2013-02-04 08:32:00,44.0,42.0,-100.00,ENE,73,0.0,0.0,92,0.00,,,0.00,,2013-02-04 14:32:00,
2013-02-04 08:42:00,44.0,42.0,-100.00,ENE,73,0.0,0.0,92,0.00,,,0.00,,2013-02-04 14:42:00,
2013-02-04 09:12:00,48.0,45.0,-100.00,South,176,0.0,2.0,89,0.00,,,0.00,,2013-02-04 15:12:00,
2013-02-04 09:23:00,48.0,45.0,-100.00,South,176,0.0,2.0,89,0.00,,,0.00,,2013-02-04 15:23:00,
2013-02-04 09:33:00,48.0,45.0,-100.00,South,176,0.0,2.0,89,0.00,,,0.00,,2013-02-04 15:33:00,
2013-02-04 09:43:00,48.0,45.0,-100.00,South,176,0.0,2.0,89,0.00,,,0.00,,2013-02-04 15:43:00,
2013-02-04 10:11:00,53.0,44.0,-100.00,ESE,113,1.0,4.0,72,0.00,,,0.00,,2013-02-04 16:11:00,
2013-02-04 10:22:00,53.0,44.0,-100.00,ESE,113,1.0,4.0,72,0.00,,,0.00,,2013-02-04 16:22:00,
2013-02-04 10:33:00,53.0,44.0,-100.00,ESE,113,1.0,4.0,72,0.00,,,0.00,,2013-02-04 16:33:00,
2013-02-04 10:42:00,53.0,44.0,-100.00,ESE,113,1.0,4.0,72,0.00,,,0.00,,2013-02-04 16:42:00,
2013-02-04 12:11:00,61.0,50.0,-100.00,SSE,156,1.0,4.0,66,-99.99,,,0.00,,2013-02-04 18:11:00,
2013-02-04 12:22:00,61.0,50.0,-100.00,SSE,156,1.0,4.0,66,-99.99,,,0.00,,2013-02-04 18:22:00,
2013-02-04 12:32:00,61.0,50.0,-100.00,SSE,156,1.0,4.0,66,-99.99,,,0.00,,2013-02-04 18:32:00,
2013-02-04 12:42:00,61.0,50.0,-100.00,SSE,156,1.0,4.0,66,-99.99,,,0.00,,2013-02-04 18:42:00,
2013-02-04 13:11:00,63.0,51.0,-100.00,SSE,148,3.0,7.0,66,0.00,,,0.00,,2013-02-04 19:11:00,
2013-02-04 13:22:00,63.0,51.0,-100.00,SSE,148,3.0,7.0,66,0.00,,,0.00,,2013-02-04 19:22:00,
2013-02-04 13:32:00,63.0,51.0,-100.00,SSE,148,3.0,7.0,66,0.00,,,0.00,,2013-02-04 19:32:00,
2013-02-04 13:42:00,63.0,51.0,-100.00,SSE,148,3.0,7.0,66,0.00,,,0.00,,2013-02-04 19:42:00,
2013-02-04 14:12:00,65.0,53.0,-100.00,SSE,162,4.0,7.0,66,0.00,,,0.00,,2013-02-04 20:12:00,
2013-02-04 14:22:00,65.0,53.0,-100.00,SSE,162,4.0,7.0,66,0.00,,,0.00,,2013-02-04 20:22:00,
2013-02-04 14:32:00,65.0,53.0,-100.00,SSE,162,4.0,7.0,66,0.00,,,0.00,,2013-02-04 20:32:00,
2013-02-04 14:42:00,65.0,53.0,-100.00,SSE,162,4.0,7.0,66,0.00,,,0.00,,2013-02-04 20:42:00,
2013-02-04 15:11:00,63.0,55.0,-100.00,SSE,157,2.0,4.0,74,0.00,,,-99.99,,2013-02-04 21:11:00,
2013-02-04 15:22:00,63.0,55.0,-100.00,SSE,157,2.0,4.0,74,0.00,,,-99.99,,2013-02-04 21:22:00,
2013-02-04 15:32:00,63.0,55.0,-100.00,SSE,157,2.0,4.0,74,0.00,,,-99.99,,2013-02-04 21:32:00,
2013-02-04 15:42:00,63.0,55.0,-100.00,SSE,157,2.0,4.0,74,0.00,,,-99.99,,2013-02-04 21:42:00,
2013-02-04 16:12:00,61.0,55.0,-100.00,SE,141,0.0,0.0,81,0.00,,,0.00,,2013-02-04 22:12:00,
2013-02-04 16:21:00,61.0,55.0,-100.00,SE,141,0.0,0.0,81,0.00,,,0.00,,2013-02-04 22:21:00,
2013-02-04 16:32:00,61.0,55.0,-100.00,SE,141,0.0,0.0,81,0.00,,,0.00,,2013-02-04 22:32:00,
2013-02-04 16:42:00,61.0,55.0,-100.00,SE,141,0.0,0.0,81,0.00,,,0.00,,2013-02-04 22:42:00,
2013-02-04 17:11:00,59.0,56.0,-100.00,ESE,106,1.0,3.0,90,0.00,,,0.00,,2013-02-04 23:11:00,
2013-02-04 17:21:00,59.0,56.0,-100.00,ESE,106,1.0,3.0,90,0.00,,,0.00,,2013-02-04 23:21:00,
2013-02-04 17:32:00,59.0,56.0,-100.00,ESE,106,1.0,3.0,90,0.00,,,0.00,,2013-02-04 23:32:00,
2013-02-04 17:42:00,59.0,56.0,-100.00,ESE,106,1.0,3.0,90,0.00,,,0.00,,2013-02-04 23:42:00,
2013-02-04 18:11:00,58.0,54.0,-100.00,ESE,107,2.0,3.0,88,0.00,,,0.00,,2013-02-05 00:11:00,
2013-02-04 18:22:00,58.0,54.0,-100.00,ESE,107,2.0,3.0,88,0.00,,,0.00,,2013-02-05 00:22:00,
2013-02-04 18:32:00,58.0,54.0,-100.00,ESE,107,2.0,3.0,88,0.00,,,0.00,,2013-02-05 00:32:00,
2013-02-04 18:42:00,58.0,54.0,-100.00,ESE,107,2.0,3.0,88,0.00,,,0.00,,2013-02-05 00:42:00,
2013-02-04 19:11:00,57.0,54.0,-100.00,ESE,111,2.0,3.0,90,0.00,,,0.00,,2013-02-05 01:11:00,
2013-02-04 19:22:00,57.0,54.0,-100.00,ESE,111,2.0,3.0,90,0.00,,,0.00,,2013-02-05 01:22:00,
2013-02-04 19:32:00,57.0,54.0,-100.00,ESE,111,2.0,3.0,90,0.00,,,0.00,,2013-02-05 01:32:00,
2013-02-04 19:42:00,57.0,54.0,-100.00,ESE,111,2.0,3.0,90,0.00,,,0.00,,2013-02-05 01:42:00,
2013-02-04 20:11:00,55.0,52.0,-100.00,SE,134,0.0,0.0,91,0.00,,,0.00,,2013-02-05 02:11:00,
2013-02-04 20:22:00,55.0,52.0,-100.00,SE,134,0.0,0.0,91,0.00,,,0.00,,2013-02-05 02:22:00,
2013-02-04 20:32:00,55.0,52.0,-100.00,SE,134,0.0,0.0,91,0.00,,,0.00,,2013-02-05 02:32:00,
2013-02-04 20:42:00,55.0,52.0,-100.00,SE,134,0.0,0.0,91,0.00,,,0.00,,2013-02-05 02:42:00,
2013-02-04 21:11:00,55.0,53.0,-100.00,SE,139,0.0,0.0,92,0.00,,,0.00,,2013-02-05 03:11:00,
2013-02-04 21:21:00,55.0,53.0,-100.00,SE,139,0.0,0.0,92,0.00,,,0.00,,2013-02-05 03:21:00,
2013-02-04 21:32:00,55.0,53.0,-100.00,SE,139,0.0,0.0,92,0.00,,,0.00,,2013-02-05 03:32:00,
2013-02-04 21:42:00,55.0,53.0,-100.00,SE,139,0.0,0.0,92,0.00,,,0.00,,2013-02-05 03:42:00,
2013-02-04 22:11:00,55.0,50.0,-100.00,SSE,165,1.0,3.0,83,0.00,,,0.00,,2013-02-05 04:11:00,
2013-02-04 22:21:00,55.0,50.0,-100.00,SSE,165,1.0,3.0,83,0.00,,,0.00,,2013-02-05 04:21:00,
2013-02-04 22:32:00,55.0,50.0,-100.00,SSE,165,1.0,3.0,83,0.00,,,0.00,,2013-02-05 04:32:00,
2013-02-04 22:42:00,55.0,50.0,-100.00,SSE,165,1.0,3.0,83,0.00,,,0.00,,2013-02-05 04:42:00,
2013-02-04 23:11:00,55.0,50.0,-100.00,ESE,111,1.0,3.0,84,0.00,,,0.00,,2013-02-05 05:11:00,
2013-02-04 23:22:00,55.0,50.0,-100.00,ESE,111,1.0,3.0,84,0.00,,,0.00,,2013-02-05 05:22:00,
2013-02-04 23:32:00,55.0,50.0,-100.00,ESE,111,1.0,3.0,84,0.00,,,0.00,,2013-02-05 05:32:00,
2013-02-04 23:42:00,55.0,50.0,-100.00,ESE,111,1.0,3.0,84,0.00,,,0.00,,2013-02-05 05:42:00,